Řízení letového provozu České republiky  
Aktualizace dat:  25.01.2022 11:34:32 UTC English version
   METEO Zobrazení stránky:  25.01.2022 11:35:59 UTC  
vysvětlivky
METAR EDDB 251120Z 27011KT 6000 BKN007 04/03 Q1031 TEMPO 4000 -DZ=
METAR EDDC 251120Z 30009KT 9000 -RADZ BKN006 BKN012 03/01 Q1031 TEMPO SCT006=
METAR EDDE 251120Z 25003KT 210V290 7000 -DZ OVC008 01/01 Q1032 TEMPO 4000 -DZ OVC005=
METAR EDDF 251120Z VRB02KT 9999 SCT004 OVC011 00/M01 Q1034 TEMPO BKN004=
METAR EDDM 251120Z 30004KT 260V330 4500 BR BKN003 M01/M02 Q1032 BECMG 5000=
METAR EDDN 251120Z 08003KT 1500 BR OVC002 M01/M01 Q1032 NOSIG=
METAR EDDP 251120Z 31008KT 9999 BKN013 03/00 Q1032 TEMPO BKN015=
METAR EDQM 251120Z VRB02KT 7000 OVC003 M01/M01 Q1030=
METAR EPBY 251130Z 28012KT 9999 OVC005 04/03 Q1026=
METAR EPGD 251130Z 30014KT 9999 SCT009 BKN011 05/03 Q1023=
METAR EPKK 251130Z 23008KT 6000 -SG OVC007 01/M01 Q1027=
METAR EPKT 251130Z 26008KT 9000 SCT005 OVC006 01/00 Q1027=
METAR EPLL 251130Z 26011KT 2800 DZ BR OVC003 01/01 Q1026=
METAR EPPO 251130Z 28011KT 9999 OVC006 03/02 Q1028=
METAR EPRZ 251130Z 27012KT 8000 FEW006 OVC010 01/M00 Q1025=
METAR EPWA 251130Z 28012KT 8000 -DZ OVC004 02/02 Q1025 TEMPO 4000 DZ BR OVC005=
METAR EPWR 251130Z 31010KT 9999 BKN011 BKN036 04/02 Q1029=
METAR LHBP 251130Z 23005KT 200V260 9999 FEW024 BKN070 00/M05 Q1030 NOSIG=
METAR LHSM 251115Z AUTO VRB02KT 6000 BKN031 M00/M02 Q1032 NOSIG=
METAR LKBC NIL
METAR LKCV 251130Z 26009KT 9999 BKN015 OVC020 02/00 Q1030 NOSIG RMK WHT WHT=
METAR LKKB 251130Z 25007KT 9999 OVC019 02/01 Q1031 NOSIG RMK WHT WHT=
SPECI LKKU 251111Z 20004KT 2000 -SN BR BKN005 OVC041 00/M01 Q1030=
METAR LKKV 251130Z 26005KT 220V280 9999 OVC006 M00/M02 Q1030 RMK REG QNH 1027=
METAR LKLN 251130Z AUTO 28005KT 260V330 9999 OVC012 02/M01 Q1031=
SPECI LKMT 251132Z 23010KT 2800 -SN BR FEW012 OVC025 01/00 Q1029 RMK REG QNH 1027=
METAR LKNA 251130Z 28005KT 7000 -DZ OVC007 01/M00 Q1029 NOSIG RMK GRN GRN=
METAR LKPD 251130Z 27011KT 8000 -DZ SCT007 OVC011 03/01 Q1030 NOSIG RMK GRN GRN=
METAR LKPJ 251130Z AUTO VRB01KT 1900 -RA BR OVC003/// 01/00 Q1030=
METAR LKPR 251130Z 25008KT 9999 FEW014 OVC019 02/00 Q1030 TEMPO BKN022 RMK REG QNH 1027=
METAR LKTB 251130Z VRB01KT 3300 BR OVC022 01/M00 Q1030 NOSIG RMK REG QNH 1027=
METAR LKVO 251100Z 27007KT 9999 SCT006 OVC019 03/01 Q1031=
METAR LOWI 251120Z VRB02KT CAVOK 04/M03 Q1032 NOSIG=
METAR LOWL 251120Z 24006KT 6000 FEW004 SCT005 BKN007 00/00 Q1032 BECMG SCT007 BKN012=
METAR LOWS 251120Z 27003KT 210V330 2000 BR BKN002 M02/M02 Q1032 NOSIG=
METAR LOWW 251120Z 30011KT 9999 FEW014 BKN030 03/M00 Q1031 NOSIG=
METAR LZIB 251130Z 30007KT 9000 FEW010 BKN033 03/M00 Q1031 NOSIG=
METAR LZKZ 251130Z VRB02KT 9999 SCT036 BKN048 M04/M08 Q1029 NOSIG=
METAR LZMC 251000Z 17002KT 2500 SN BR FEW003 BKN005 OVC006 00/M01 Q1032=
METAR LZPP 251130Z 01003KT 330V040 6000 BKN011 OVC040 M00/M02 Q1031=
METAR LZSL 251000Z 00000KT 9999 BKN046 M04/M09 Q1029=
METAR LZTT 251130Z 26011KT 9999 BKN030 M00/M05 Q1025 NOSIG=
METAR LZZI 251130Z VRB01KT 7000 BKN027 OVC042 M01/M04 Q1029=